Terminal Aerodrome Forecast
Issued by NWS

Home | Current Version | Previous Version | Text Only | Print | Product List | Glossary On
Versions: 1 2 3 4 5 6 7 8 9 10 11 12 13 14
603
FTUS44 KLZK 080520
TAFPBF
TAF
KPBF 080520Z 0806/0906 28008G15KT P6SM SCT150 BKN250
     FM080800 30014G20KT P6SM SCT040
     FM081800 32018G28KT P6SM BKN040
     FM090200 34012G20KT P6SM SCT040=

USA.gov is the U.S. government's official web portal to all federal, state and local government web resources and services.